Terminal Aerodrome Forecast
Issued by NWS

Home | Current Version | Previous Version | Text Only | Print | Product List | Glossary On
Versions: 1 2 3 4 5 6 7 8 9 10 11 12 13 14 15 16
000
FTUS45 KABQ 172300
TAFLVS
TAF
KLVS 172323Z 1800/1824 17012G18KT P6SM FEW050
     FM180200 18009KT P6SM SKC
     FM181700 20014KT P6SM FEW250=

USA.gov is the U.S. government's official web portal to all federal, state and local government web resources and services.